Pocono Lake, Pennsylvania
Current Conditions -  °F | °C
As of 7:53 AM on Wednesday 26 Nov 2014 (Local Time) from KMPO Reporting Station
Light Snow Light Snow  
Wind Chill: 26°   Ceiling: 1300
Heat Index: 32°   Visibility: 0.75mi
Dew Point: 29°   Wind: 7mph
Humidity: 88%   Direction: 40°NE
Pressure: 30.06"   Gusts: NA
Location:  41.09°N, 75.58°W
Report Text: KMPO 261253Z AUTO 04006KT 3/4SM -SN BR VV013 00/M02 A3006 RMK AO2 SNB04 SLP196 P0001 T00001017
Loading
Personal Weather Stations






























Interactive Weather Map New forecast layout! Learn more

10-Day Weather Forecast

Advertisements
Track Severe Weather on mobile